sensor_id;sensor_type;location;lat;lon;timestamp;P1;durP1;ratioP1;P2;durP2;ratioP2
69789;SDS011;57064;52.046;4.800;2023-01-01T00:01:27;33.15;;;19.75;;
69789;SDS011;57064;52.046;4.800;2023-01-01T00:03:55;25.23;;;15.25;;
69789;SDS011;57064;52.046;4.800;2023-01-01T00:06:22;33.42;;;17.73;;
69789;SDS011;57064;52.046;4.800;2023-01-01T00:08:49;31.77;;;18.70;;
69789;SDS011;57064;52.046;4.800;2023-01-01T00:11:38;29.65;;;15.10;;
69789;SDS011;57064;52.046;4.800;2023-01-01T00:14:04;28.48;;;12.80;;
69789;SDS011;57064;52.046;4.800;2023-01-01T00:16:30;21.15;;;11.13;;
69789;SDS011;57064;52.046;4.800;2023-01-01T00:18:57;22.92;;;11.90;;
69789;SDS011;57064;52.046;4.800;2023-01-01T00:21:23;34.22;;;12.30;;
69789;SDS011;57064;52.046;4.800;2023-01-01T00:23:49;23.20;;;11.43;;
69789;SDS011;57064;52.046;4.800;2023-01-01T00:26:16;29.30;;;12.82;;
69789;SDS011;57064;52.046;4.800;2023-01-01T00:28:43;18.20;;;11.30;;
69789;SDS011;57064;52.046;4.800;2023-01-01T00:31:11;26.90;;;10.40;;
69789;SDS011;57064;52.046;4.800;2023-01-01T00:33:42;17.50;;;9.13;;
69789;SDS011;57064;52.046;4.800;2023-01-01T00:36:09;27.63;;;10.07;;
69789;SDS011;57064;52.046;4.800;2023-01-01T00:38:37;19.33;;;9.73;;
69789;SDS011;57064;52.046;4.800;2023-01-01T00:41:03;20.75;;;8.82;;
69789;SDS011;57064;52.046;4.800;2023-01-01T00:43:30;17.67;;;9.07;;
69789;SDS011;57064;52.046;4.800;2023-01-01T00:45:56;21.65;;;9.35;;
69789;SDS011;57064;52.046;4.800;2023-01-01T00:48:22;16.35;;;8.07;;
69789;SDS011;57064;52.046;4.800;2023-01-01T00:50:49;16.27;;;6.97;;
69789;SDS011;57064;52.046;4.800;2023-01-01T00:53:16;14.07;;;6.53;;
69789;SDS011;57064;52.046;4.800;2023-01-01T00:55:43;13.75;;;6.18;;
69789;SDS011;57064;52.046;4.800;2023-01-01T00:58:09;18.30;;;6.15;;
69789;SDS011;57064;52.046;4.800;2023-01-01T01:00:36;17.33;;;6.88;;
69789;SDS011;57064;52.046;4.800;2023-01-01T01:03:02;21.80;;;6.07;;
69789;SDS011;57064;52.046;4.800;2023-01-01T01:05:29;19.92;;;5.30;;
69789;SDS011;57064;52.046;4.800;2023-01-01T01:07:56;15.68;;;4.53;;
69789;SDS011;57064;52.046;4.800;2023-01-01T01:10:23;13.38;;;4.78;;
69789;SDS011;57064;52.046;4.800;2023-01-01T01:12:50;11.07;;;4.47;;
69789;SDS011;57064;52.046;4.800;2023-01-01T01:15:17;9.63;;;3.92;;
69789;SDS011;57064;52.046;4.800;2023-01-01T01:17:43;8.30;;;3.45;;
69789;SDS011;57064;52.046;4.800;2023-01-01T01:20:10;13.98;;;3.97;;
69789;SDS011;57064;52.046;4.800;2023-01-01T01:22:37;12.20;;;3.58;;
69789;SDS011;57064;52.046;4.800;2023-01-01T01:25:04;11.10;;;4.15;;
69789;SDS011;57064;52.046;4.800;2023-01-01T01:27:31;10.75;;;3.50;;
69789;SDS011;57064;52.046;4.800;2023-01-01T01:29:57;12.45;;;3.50;;
69789;SDS011;57064;52.046;4.800;2023-01-01T01:32:23;14.55;;;4.32;;
69789;SDS011;57064;52.046;4.800;2023-01-01T01:34:49;14.10;;;3.38;;
69789;SDS011;57064;52.046;4.800;2023-01-01T01:37:15;15.27;;;4.95;;
69789;SDS011;57064;52.046;4.800;2023-01-01T01:39:41;9.02;;;3.30;;
69789;SDS011;57064;52.046;4.800;2023-01-01T01:42:10;12.23;;;3.92;;
69789;SDS011;57064;52.046;4.800;2023-01-01T01:47:24;12.50;;;4.10;;
69789;SDS011;57064;52.046;4.800;2023-01-01T01:50:36;10.13;;;3.08;;
69789;SDS011;57064;52.046;4.800;2023-01-01T01:55:38;9.60;;;2.60;;
69789;SDS011;57064;52.046;4.800;2023-01-01T01:58:08;7.03;;;2.38;;
69789;SDS011;57064;52.046;4.800;2023-01-01T02:00:36;7.72;;;2.67;;
69789;SDS011;57064;52.046;4.800;2023-01-01T02:03:06;9.10;;;2.47;;
69789;SDS011;57064;52.046;4.800;2023-01-01T02:05:35;8.82;;;2.85;;
69789;SDS011;57064;52.046;4.800;2023-01-01T02:08:02;12.02;;;3.05;;
69789;SDS011;57064;52.046;4.800;2023-01-01T02:10:29;9.27;;;2.75;;
69789;SDS011;57064;52.046;4.800;2023-01-01T02:12:55;12.02;;;2.80;;
69789;SDS011;57064;52.046;4.800;2023-01-01T02:15:22;6.07;;;2.00;;
69789;SDS011;57064;52.046;4.800;2023-01-01T02:18:05;11.85;;;3.17;;
69789;SDS011;57064;52.046;4.800;2023-01-01T02:20:43;9.25;;;2.80;;
69789;SDS011;57064;52.046;4.800;2023-01-01T02:23:30;7.90;;;2.45;;
69789;SDS011;57064;52.046;4.800;2023-01-01T02:26:34;8.55;;;3.22;;
69789;SDS011;57064;52.046;4.800;2023-01-01T02:32:00;10.05;;;2.50;;
69789;SDS011;57064;52.046;4.800;2023-01-01T02:34:33;8.25;;;2.42;;
69789;SDS011;57064;52.046;4.800;2023-01-01T02:37:12;9.75;;;2.75;;
69789;SDS011;57064;52.046;4.800;2023-01-01T02:39:43;10.30;;;2.70;;
69789;SDS011;57064;52.046;4.800;2023-01-01T02:42:15;9.55;;;2.55;;
69789;SDS011;57064;52.046;4.800;2023-01-01T02:44:43;11.48;;;2.08;;
69789;SDS011;57064;52.046;4.800;2023-01-01T02:47:15;8.57;;;2.47;;
69789;SDS011;57064;52.046;4.800;2023-01-01T02:49:50;6.65;;;1.77;;
69789;SDS011;57064;52.046;4.800;2023-01-01T02:52:51;7.75;;;2.35;;
69789;SDS011;57064;52.046;4.800;2023-01-01T02:55:27;9.00;;;2.22;;
69789;SDS011;57064;52.046;4.800;2023-01-01T02:58:14;5.95;;;2.22;;
69789;SDS011;57064;52.046;4.800;2023-01-01T03:01:28;6.32;;;2.15;;
69789;SDS011;57064;52.046;4.800;2023-01-01T03:07:25;8.75;;;2.20;;
69789;SDS011;57064;52.046;4.800;2023-01-01T03:10:14;10.73;;;2.10;;
69789;SDS011;57064;52.046;4.800;2023-01-01T03:12:44;8.13;;;2.58;;
69789;SDS011;57064;52.046;4.800;2023-01-01T03:18:16;12.13;;;2.30;;
69789;SDS011;57064;52.046;4.800;2023-01-01T03:20:50;7.65;;;1.80;;
69789;SDS011;57064;52.046;4.800;2023-01-01T03:23:20;9.25;;;2.03;;
69789;SDS011;57064;52.046;4.800;2023-01-01T03:25:56;7.93;;;2.10;;
69789;SDS011;57064;52.046;4.800;2023-01-01T03:28:26;8.98;;;2.13;;
69789;SDS011;57064;52.046;4.800;2023-01-01T03:30:56;11.37;;;1.80;;
69789;SDS011;57064;52.046;4.800;2023-01-01T03:33:31;5.43;;;1.40;;
69789;SDS011;57064;52.046;4.800;2023-01-01T03:36:05;11.10;;;1.77;;
69789;SDS011;57064;52.046;4.800;2023-01-01T03:41:14;9.80;;;2.30;;
69789;SDS011;57064;52.046;4.800;2023-01-01T03:46:33;7.72;;;2.30;;
69789;SDS011;57064;52.046;4.800;2023-01-01T03:49:00;10.02;;;1.73;;
69789;SDS011;57064;52.046;4.800;2023-01-01T03:57:10;7.00;;;1.00;;
69789;SDS011;57064;52.046;4.800;2023-01-01T04:02:56;5.40;;;1.60;;
69789;SDS011;57064;52.046;4.800;2023-01-01T04:05:21;6.60;;;0.93;;
69789;SDS011;57064;52.046;4.800;2023-01-01T04:07:48;3.45;;;1.02;;
69789;SDS011;57064;52.046;4.800;2023-01-01T04:10:16;5.22;;;1.00;;
69789;SDS011;57064;52.046;4.800;2023-01-01T04:12:43;8.68;;;1.42;;
69789;SDS011;57064;52.046;4.800;2023-01-01T04:15:14;3.53;;;1.17;;
69789;SDS011;57064;52.046;4.800;2023-01-01T04:17:45;4.20;;;1.42;;
69789;SDS011;57064;52.046;4.800;2023-01-01T04:20:12;8.43;;;1.63;;
69789;SDS011;57064;52.046;4.800;2023-01-01T04:22:38;5.15;;;1.35;;
69789;SDS011;57064;52.046;4.800;2023-01-01T04:25:04;5.28;;;1.52;;
69789;SDS011;57064;52.046;4.800;2023-01-01T04:27:31;6.40;;;1.50;;
69789;SDS011;57064;52.046;4.800;2023-01-01T04:29:57;7.32;;;1.92;;
69789;SDS011;57064;52.046;4.800;2023-01-01T04:32:23;9.85;;;1.70;;
69789;SDS011;57064;52.046;4.800;2023-01-01T04:34:50;6.75;;;1.77;;
69789;SDS011;57064;52.046;4.800;2023-01-01T04:37:16;7.18;;;2.17;;
69789;SDS011;57064;52.046;4.800;2023-01-01T04:39:42;10.57;;;2.15;;
69789;SDS011;57064;52.046;4.800;2023-01-01T04:42:08;6.80;;;1.42;;
69789;SDS011;57064;52.046;4.800;2023-01-01T04:44:34;8.65;;;1.65;;
69789;SDS011;57064;52.046;4.800;2023-01-01T04:47:00;6.72;;;1.48;;
69789;SDS011;57064;52.046;4.800;2023-01-01T04:49:26;9.15;;;2.17;;
69789;SDS011;57064;52.046;4.800;2023-01-01T04:51:52;13.50;;;1.85;;
69789;SDS011;57064;52.046;4.800;2023-01-01T04:54:18;2.85;;;1.25;;
69789;SDS011;57064;52.046;4.800;2023-01-01T04:56:44;9.27;;;1.80;;
69789;SDS011;57064;52.046;4.800;2023-01-01T04:59:10;6.32;;;1.75;;
69789;SDS011;57064;52.046;4.800;2023-01-01T05:01:36;7.28;;;1.85;;
69789;SDS011;57064;52.046;4.800;2023-01-01T05:04:02;5.88;;;1.33;;
69789;SDS011;57064;52.046;4.800;2023-01-01T05:06:28;7.03;;;1.30;;
69789;SDS011;57064;52.046;4.800;2023-01-01T05:08:55;6.32;;;1.23;;
69789;SDS011;57064;52.046;4.800;2023-01-01T05:11:23;10.73;;;1.65;;
69789;SDS011;57064;52.046;4.800;2023-01-01T05:13:51;8.57;;;2.03;;
69789;SDS011;57064;52.046;4.800;2023-01-01T05:16:20;4.53;;;1.17;;
69789;SDS011;57064;52.046;4.800;2023-01-01T05:18:50;4.70;;;1.15;;
69789;SDS011;57064;52.046;4.800;2023-01-01T05:21:17;7.07;;;1.20;;
69789;SDS011;57064;52.046;4.800;2023-01-01T05:23:56;4.20;;;0.90;;
69789;SDS011;57064;52.046;4.800;2023-01-01T05:26:24;7.50;;;1.48;;
69789;SDS011;57064;52.046;4.800;2023-01-01T05:28:53;10.45;;;1.38;;
69789;SDS011;57064;52.046;4.800;2023-01-01T05:31:20;4.40;;;1.23;;
69789;SDS011;57064;52.046;4.800;2023-01-01T05:33:48;4.75;;;1.17;;
69789;SDS011;57064;52.046;4.800;2023-01-01T05:36:17;5.55;;;1.20;;
69789;SDS011;57064;52.046;4.800;2023-01-01T05:38:54;4.03;;;0.98;;
69789;SDS011;57064;52.046;4.800;2023-01-01T05:41:21;5.70;;;1.35;;
69789;SDS011;57064;52.046;4.800;2023-01-01T05:43:48;2.90;;;0.93;;
69789;SDS011;57064;52.046;4.800;2023-01-01T05:46:19;4.00;;;1.10;;
69789;SDS011;57064;52.046;4.800;2023-01-01T05:48:48;5.75;;;1.10;;
69789;SDS011;57064;52.046;4.800;2023-01-01T05:51:15;7.78;;;1.30;;
69789;SDS011;57064;52.046;4.800;2023-01-01T05:53:43;6.93;;;0.88;;
69789;SDS011;57064;52.046;4.800;2023-01-01T05:56:10;4.18;;;1.02;;
69789;SDS011;57064;52.046;4.800;2023-01-01T05:58:37;6.05;;;1.00;;
69789;SDS011;57064;52.046;4.800;2023-01-01T06:01:07;7.38;;;1.50;;
69789;SDS011;57064;52.046;4.800;2023-01-01T06:03:33;4.82;;;1.17;;
69789;SDS011;57064;52.046;4.800;2023-01-01T06:06:04;10.52;;;1.45;;
69789;SDS011;57064;52.046;4.800;2023-01-01T06:08:31;3.30;;;1.25;;
69789;SDS011;57064;52.046;4.800;2023-01-01T06:11:01;3.88;;;1.08;;
69789;SDS011;57064;52.046;4.800;2023-01-01T06:13:28;2.95;;;0.90;;
69789;SDS011;57064;52.046;4.800;2023-01-01T06:15:55;3.90;;;0.77;;
69789;SDS011;57064;52.046;4.800;2023-01-01T06:18:22;8.57;;;1.33;;
69789;SDS011;57064;52.046;4.800;2023-01-01T06:20:48;8.30;;;1.30;;
69789;SDS011;57064;52.046;4.800;2023-01-01T06:23:15;5.15;;;1.02;;
69789;SDS011;57064;52.046;4.800;2023-01-01T06:25:41;7.18;;;0.95;;
69789;SDS011;57064;52.046;4.800;2023-01-01T06:28:07;5.25;;;1.20;;
69789;SDS011;57064;52.046;4.800;2023-01-01T06:30:33;10.73;;;1.13;;
69789;SDS011;57064;52.046;4.800;2023-01-01T06:33:00;7.20;;;1.20;;
69789;SDS011;57064;52.046;4.800;2023-01-01T06:35:26;6.57;;;1.08;;
69789;SDS011;57064;52.046;4.800;2023-01-01T06:37:52;9.77;;;1.27;;
69789;SDS011;57064;52.046;4.800;2023-01-01T06:40:18;5.05;;;0.98;;
69789;SDS011;57064;52.046;4.800;2023-01-01T06:42:44;8.13;;;1.30;;
69789;SDS011;57064;52.046;4.800;2023-01-01T06:45:10;5.95;;;1.33;;
69789;SDS011;57064;52.046;4.800;2023-01-01T06:47:37;5.97;;;0.85;;
69789;SDS011;57064;52.046;4.800;2023-01-01T06:50:03;7.45;;;1.00;;
69789;SDS011;57064;52.046;4.800;2023-01-01T06:52:30;8.18;;;1.05;;
69789;SDS011;57064;52.046;4.800;2023-01-01T06:54:56;6.05;;;1.23;;
69789;SDS011;57064;52.046;4.800;2023-01-01T06:57:22;9.02;;;0.90;;
69789;SDS011;57064;52.046;4.800;2023-01-01T06:59:49;4.93;;;0.90;;
69789;SDS011;57064;52.046;4.800;2023-01-01T07:02:15;6.53;;;1.20;;
69789;SDS011;57064;52.046;4.800;2023-01-01T07:04:41;3.50;;;1.02;;
69789;SDS011;57064;52.046;4.800;2023-01-01T07:07:07;6.82;;;1.23;;
69789;SDS011;57064;52.046;4.800;2023-01-01T07:09:33;6.43;;;0.77;;
69789;SDS011;57064;52.046;4.800;2023-01-01T07:11:59;5.15;;;1.30;;
69789;SDS011;57064;52.046;4.800;2023-01-01T07:14:25;3.50;;;0.70;;
69789;SDS011;57064;52.046;4.800;2023-01-01T07:16:51;6.80;;;1.10;;
69789;SDS011;57064;52.046;4.800;2023-01-01T07:19:17;3.00;;;0.80;;
69789;SDS011;57064;52.046;4.800;2023-01-01T07:21:52;9.23;;;1.40;;
69789;SDS011;57064;52.046;4.800;2023-01-01T07:24:19;8.05;;;1.17;;
69789;SDS011;57064;52.046;4.800;2023-01-01T07:26:45;3.38;;;0.60;;
69789;SDS011;57064;52.046;4.800;2023-01-01T07:29:13;5.70;;;1.08;;
69789;SDS011;57064;52.046;4.800;2023-01-01T07:31:40;8.23;;;1.02;;
69789;SDS011;57064;52.046;4.800;2023-01-01T07:34:12;3.35;;;0.85;;
69789;SDS011;57064;52.046;4.800;2023-01-01T07:36:39;4.97;;;1.17;;
69789;SDS011;57064;52.046;4.800;2023-01-01T07:39:06;6.95;;;1.05;;
69789;SDS011;57064;52.046;4.800;2023-01-01T07:41:32;8.23;;;1.25;;
69789;SDS011;57064;52.046;4.800;2023-01-01T07:43:58;9.15;;;1.50;;
69789;SDS011;57064;52.046;4.800;2023-01-01T07:46:24;6.72;;;1.05;;
69789;SDS011;57064;52.046;4.800;2023-01-01T07:48:51;6.28;;;0.80;;
69789;SDS011;57064;52.046;4.800;2023-01-01T07:51:17;7.47;;;0.90;;
69789;SDS011;57064;52.046;4.800;2023-01-01T07:53:43;8.23;;;1.38;;
69789;SDS011;57064;52.046;4.800;2023-01-01T07:56:09;5.88;;;1.73;;
69789;SDS011;57064;52.046;4.800;2023-01-01T07:58:41;9.80;;;1.80;;
69789;SDS011;57064;52.046;4.800;2023-01-01T08:03:35;8.68;;;1.38;;
69789;SDS011;57064;52.046;4.800;2023-01-01T08:06:05;6.50;;;1.35;;
69789;SDS011;57064;52.046;4.800;2023-01-01T08:08:34;7.53;;;1.25;;
69789;SDS011;57064;52.046;4.800;2023-01-01T08:11:01;6.90;;;1.77;;
69789;SDS011;57064;52.046;4.800;2023-01-01T08:13:27;12.55;;;1.45;;
69789;SDS011;57064;52.046;4.800;2023-01-01T08:15:53;7.65;;;1.10;;
69789;SDS011;57064;52.046;4.800;2023-01-01T08:18:21;8.20;;;1.00;;
69789;SDS011;57064;52.046;4.800;2023-01-01T08:20:47;10.73;;;1.10;;
69789;SDS011;57064;52.046;4.800;2023-01-01T08:23:13;4.70;;;1.30;;
69789;SDS011;57064;52.046;4.800;2023-01-01T08:25:39;9.23;;;1.70;;
69789;SDS011;57064;52.046;4.800;2023-01-01T08:28:05;6.50;;;1.10;;
69789;SDS011;57064;52.046;4.800;2023-01-01T08:30:32;9.55;;;1.17;;
69789;SDS011;57064;52.046;4.800;2023-01-01T08:32:58;8.32;;;1.30;;
69789;SDS011;57064;52.046;4.800;2023-01-01T08:35:24;12.00;;;1.55;;
69789;SDS011;57064;52.046;4.800;2023-01-01T08:37:50;8.30;;;1.48;;
69789;SDS011;57064;52.046;4.800;2023-01-01T08:40:16;6.88;;;1.17;;
69789;SDS011;57064;52.046;4.800;2023-01-01T08:42:42;9.35;;;1.30;;
69789;SDS011;57064;52.046;4.800;2023-01-01T08:45:09;13.90;;;1.83;;
69789;SDS011;57064;52.046;4.800;2023-01-01T08:47:35;6.15;;;1.20;;
69789;SDS011;57064;52.046;4.800;2023-01-01T08:50:01;10.77;;;1.40;;
69789;SDS011;57064;52.046;4.800;2023-01-01T08:52:27;6.95;;;1.50;;
69789;SDS011;57064;52.046;4.800;2023-01-01T08:54:53;10.85;;;1.20;;
69789;SDS011;57064;52.046;4.800;2023-01-01T08:57:19;9.40;;;1.83;;
69789;SDS011;57064;52.046;4.800;2023-01-01T08:59:45;2.65;;;0.93;;
69789;SDS011;57064;52.046;4.800;2023-01-01T09:02:11;8.50;;;1.40;;
69789;SDS011;57064;52.046;4.800;2023-01-01T09:04:37;7.07;;;1.58;;
69789;SDS011;57064;52.046;4.800;2023-01-01T09:07:03;6.38;;;1.17;;
69789;SDS011;57064;52.046;4.800;2023-01-01T09:09:29;9.60;;;1.63;;
69789;SDS011;57064;52.046;4.800;2023-01-01T09:11:56;6.93;;;1.20;;
69789;SDS011;57064;52.046;4.800;2023-01-01T09:14:25;6.63;;;1.67;;
69789;SDS011;57064;52.046;4.800;2023-01-01T09:16:51;11.30;;;1.50;;
69789;SDS011;57064;52.046;4.800;2023-01-01T09:19:17;5.47;;;1.35;;
69789;SDS011;57064;52.046;4.800;2023-01-01T09:21:43;13.25;;;2.25;;
69789;SDS011;57064;52.046;4.800;2023-01-01T09:24:09;7.32;;;1.50;;
69789;SDS011;57064;52.046;4.800;2023-01-01T09:26:35;11.82;;;1.67;;
69789;SDS011;57064;52.046;4.800;2023-01-01T09:29:01;10.52;;;1.50;;
69789;SDS011;57064;52.046;4.800;2023-01-01T09:31:28;7.78;;;1.48;;
69789;SDS011;57064;52.046;4.800;2023-01-01T09:33:54;10.55;;;1.30;;
69789;SDS011;57064;52.046;4.800;2023-01-01T09:38:49;7.88;;;1.50;;
69789;SDS011;57064;52.046;4.800;2023-01-01T09:41:23;6.93;;;1.65;;
69789;SDS011;57064;52.046;4.800;2023-01-01T09:46:58;6.95;;;2.00;;
69789;SDS011;57064;52.046;4.800;2023-01-01T09:49:40;8.20;;;2.35;;
69789;SDS011;57064;52.046;4.800;2023-01-01T09:52:09;8.70;;;1.42;;
69789;SDS011;57064;52.046;4.800;2023-01-01T09:54:47;4.85;;;0.90;;
69789;SDS011;57064;52.046;4.800;2023-01-01T09:57:20;9.15;;;1.38;;
69789;SDS011;57064;52.046;4.800;2023-01-01T09:59:52;6.97;;;1.23;;
69789;SDS011;57064;52.046;4.800;2023-01-01T10:02:31;10.35;;;1.10;;
69789;SDS011;57064;52.046;4.800;2023-01-01T10:13:41;10.38;;;1.17;;
69789;SDS011;57064;52.046;4.800;2023-01-01T10:16:12;6.30;;;1.35;;
69789;SDS011;57064;52.046;4.800;2023-01-01T10:18:52;8.02;;;1.50;;
69789;SDS011;57064;52.046;4.800;2023-01-01T10:21:31;6.47;;;1.40;;
69789;SDS011;57064;52.046;4.800;2023-01-01T10:24:01;6.88;;;1.63;;
69789;SDS011;57064;52.046;4.800;2023-01-01T10:26:33;8.00;;;1.40;;
69789;SDS011;57064;52.046;4.800;2023-01-01T10:31:46;5.78;;;1.23;;
69789;SDS011;57064;52.046;4.800;2023-01-01T10:36:42;12.35;;;1.65;;
69789;SDS011;57064;52.046;4.800;2023-01-01T10:39:11;9.52;;;1.83;;
69789;SDS011;57064;52.046;4.800;2023-01-01T10:41:41;10.88;;;1.73;;
69789;SDS011;57064;52.046;4.800;2023-01-01T10:44:11;11.52;;;1.98;;
69789;SDS011;57064;52.046;4.800;2023-01-01T10:46:41;11.77;;;1.48;;
69789;SDS011;57064;52.046;4.800;2023-01-01T10:49:12;10.80;;;2.47;;
69789;SDS011;57064;52.046;4.800;2023-01-01T10:51:46;9.15;;;1.33;;
69789;SDS011;57064;52.046;4.800;2023-01-01T10:54:23;12.43;;;2.10;;
69789;SDS011;57064;52.046;4.800;2023-01-01T10:57:13;8.77;;;2.90;;
69789;SDS011;57064;52.046;4.800;2023-01-01T10:59:54;7.95;;;1.45;;
69789;SDS011;57064;52.046;4.800;2023-01-01T11:02:36;8.02;;;1.60;;
69789;SDS011;57064;52.046;4.800;2023-01-01T11:07:38;6.28;;;1.58;;
69789;SDS011;57064;52.046;4.800;2023-01-01T11:10:06;11.85;;;1.80;;
69789;SDS011;57064;52.046;4.800;2023-01-01T11:12:39;7.38;;;1.40;;
69789;SDS011;57064;52.046;4.800;2023-01-01T11:15:05;11.82;;;1.63;;
69789;SDS011;57064;52.046;4.800;2023-01-01T11:17:33;5.72;;;1.70;;
69789;SDS011;57064;52.046;4.800;2023-01-01T11:20:01;9.80;;;1.80;;
69789;SDS011;57064;52.046;4.800;2023-01-01T11:22:37;9.18;;;1.75;;
69789;SDS011;57064;52.046;4.800;2023-01-01T11:27:42;11.48;;;1.70;;
69789;SDS011;57064;52.046;4.800;2023-01-01T11:30:18;10.80;;;1.95;;
69789;SDS011;57064;52.046;4.800;2023-01-01T11:32:50;10.35;;;2.42;;
69789;SDS011;57064;52.046;4.800;2023-01-01T11:35:24;6.70;;;1.50;;
69789;SDS011;57064;52.046;4.800;2023-01-01T11:37:53;11.50;;;1.70;;
69789;SDS011;57064;52.046;4.800;2023-01-01T11:40:37;11.40;;;1.95;;
69789;SDS011;57064;52.046;4.800;2023-01-01T11:43:13;11.73;;;2.25;;
69789;SDS011;57064;52.046;4.800;2023-01-01T11:45:46;11.95;;;1.95;;
69789;SDS011;57064;52.046;4.800;2023-01-01T11:48:17;11.10;;;2.45;;
69789;SDS011;57064;52.046;4.800;2023-01-01T11:50:51;11.95;;;1.88;;
69789;SDS011;57064;52.046;4.800;2023-01-01T11:55:49;5.70;;;1.67;;
69789;SDS011;57064;52.046;4.800;2023-01-01T12:04:00;9.75;;;1.95;;
69789;SDS011;57064;52.046;4.800;2023-01-01T12:06:37;13.50;;;2.20;;
69789;SDS011;57064;52.046;4.800;2023-01-01T12:09:29;7.97;;;2.05;;
69789;SDS011;57064;52.046;4.800;2023-01-01T12:12:19;19.02;;;2.75;;
69789;SDS011;57064;52.046;4.800;2023-01-01T12:15:06;6.78;;;2.03;;
69789;SDS011;57064;52.046;4.800;2023-01-01T12:18:12;10.93;;;2.13;;
69789;SDS011;57064;52.046;4.800;2023-01-01T12:20:39;9.02;;;1.85;;
69789;SDS011;57064;52.046;4.800;2023-01-01T12:23:16;11.52;;;1.77;;
69789;SDS011;57064;52.046;4.800;2023-01-01T12:25:45;8.95;;;2.22;;
69789;SDS011;57064;52.046;4.800;2023-01-01T12:45:28;7.20;;;1.50;;
69789;SDS011;57064;52.046;4.800;2023-01-01T12:56:32;6.82;;;1.60;;
69789;SDS011;57064;52.046;4.800;2023-01-01T12:59:06;9.35;;;1.55;;
69789;SDS011;57064;52.046;4.800;2023-01-01T13:01:42;9.98;;;2.50;;
69789;SDS011;57064;52.046;4.800;2023-01-01T13:04:18;15.57;;;2.05;;
69789;SDS011;57064;52.046;4.800;2023-01-01T13:06:46;6.78;;;1.80;;
69789;SDS011;57064;52.046;4.800;2023-01-01T13:09:22;12.80;;;2.65;;
69789;SDS011;57064;52.046;4.800;2023-01-01T13:11:51;8.25;;;1.98;;
69789;SDS011;57064;52.046;4.800;2023-01-01T13:14:28;10.73;;;2.25;;
69789;SDS011;57064;52.046;4.800;2023-01-01T13:16:55;11.00;;;1.90;;
69789;SDS011;57064;52.046;4.800;2023-01-01T13:19:31;9.18;;;2.15;;
69789;SDS011;57064;52.046;4.800;2023-01-01T13:22:33;8.55;;;2.25;;
69789;SDS011;57064;52.046;4.800;2023-01-01T13:25:02;13.70;;;2.40;;
69789;SDS011;57064;52.046;4.800;2023-01-01T13:46:48;10.15;;;2.40;;
69789;SDS011;57064;52.046;4.800;2023-01-01T13:58:19;10.90;;;2.15;;
69789;SDS011;57064;52.046;4.800;2023-01-01T14:03:40;10.85;;;2.45;;
69789;SDS011;57064;52.046;4.800;2023-01-01T14:06:10;9.82;;;2.50;;
69789;SDS011;57064;52.046;4.800;2023-01-01T14:08:39;12.13;;;2.58;;
69789;SDS011;57064;52.046;4.800;2023-01-01T14:11:20;17.20;;;3.22;;
69789;SDS011;57064;52.046;4.800;2023-01-01T14:13:48;10.57;;;2.42;;
69789;SDS011;57064;52.046;4.800;2023-01-01T14:16:14;15.70;;;2.65;;
69789;SDS011;57064;52.046;4.800;2023-01-01T14:18:42;12.25;;;3.05;;
69789;SDS011;57064;52.046;4.800;2023-01-01T14:21:12;11.98;;;2.53;;
69789;SDS011;57064;52.046;4.800;2023-01-01T14:23:47;14.18;;;3.38;;
69789;SDS011;57064;52.046;4.800;2023-01-01T14:26:17;12.43;;;3.45;;
69789;SDS011;57064;52.046;4.800;2023-01-01T14:28:45;10.70;;;3.08;;
69789;SDS011;57064;52.046;4.800;2023-01-01T14:31:18;9.07;;;2.63;;
69789;SDS011;57064;52.046;4.800;2023-01-01T14:33:47;12.07;;;2.78;;
69789;SDS011;57064;52.046;4.800;2023-01-01T14:36:19;13.77;;;2.28;;
69789;SDS011;57064;52.046;4.800;2023-01-01T14:38:51;13.77;;;2.85;;
69789;SDS011;57064;52.046;4.800;2023-01-01T14:41:38;10.77;;;2.80;;
69789;SDS011;57064;52.046;4.800;2023-01-01T14:44:08;11.40;;;3.08;;
69789;SDS011;57064;52.046;4.800;2023-01-01T14:46:40;14.15;;;3.22;;
69789;SDS011;57064;52.046;4.800;2023-01-01T14:49:11;11.70;;;2.78;;
69789;SDS011;57064;52.046;4.800;2023-01-01T14:51:53;10.45;;;3.65;;
69789;SDS011;57064;52.046;4.800;2023-01-01T14:54:46;14.07;;;3.40;;
69789;SDS011;57064;52.046;4.800;2023-01-01T14:57:14;17.42;;;3.13;;
69789;SDS011;57064;52.046;4.800;2023-01-01T14:59:47;14.18;;;2.90;;
69789;SDS011;57064;52.046;4.800;2023-01-01T15:04:49;8.60;;;2.75;;
69789;SDS011;57064;52.046;4.800;2023-01-01T15:07:20;13.15;;;3.08;;
69789;SDS011;57064;52.046;4.800;2023-01-01T15:12:14;13.93;;;2.70;;
69789;SDS011;57064;52.046;4.800;2023-01-01T15:14:45;11.55;;;2.60;;
69789;SDS011;57064;52.046;4.800;2023-01-01T15:17:12;11.63;;;2.78;;
69789;SDS011;57064;52.046;4.800;2023-01-01T15:19:41;11.55;;;2.72;;
69789;SDS011;57064;52.046;4.800;2023-01-01T15:22:09;11.48;;;3.35;;
69789;SDS011;57064;52.046;4.800;2023-01-01T15:24:43;10.77;;;3.85;;
69789;SDS011;57064;52.046;4.800;2023-01-01T15:27:15;10.38;;;3.90;;
69789;SDS011;57064;52.046;4.800;2023-01-01T15:32:33;9.82;;;3.30;;
69789;SDS011;57064;52.046;4.800;2023-01-01T15:35:03;7.20;;;2.47;;
69789;SDS011;57064;52.046;4.800;2023-01-01T15:37:34;13.68;;;2.75;;
69789;SDS011;57064;52.046;4.800;2023-01-01T15:42:46;13.50;;;3.17;;
69789;SDS011;57064;52.046;4.800;2023-01-01T15:47:51;12.65;;;3.60;;
69789;SDS011;57064;52.046;4.800;2023-01-01T15:52:53;11.73;;;3.00;;
69789;SDS011;57064;52.046;4.800;2023-01-01T15:55:21;11.65;;;4.35;;
69789;SDS011;57064;52.046;4.800;2023-01-01T15:57:50;17.85;;;4.82;;
69789;SDS011;57064;52.046;4.800;2023-01-01T16:00:17;11.43;;;3.22;;
69789;SDS011;57064;52.046;4.800;2023-01-01T16:02:48;13.25;;;4.13;;
69789;SDS011;57064;52.046;4.800;2023-01-01T16:05:17;12.32;;;3.58;;
69789;SDS011;57064;52.046;4.800;2023-01-01T16:07:46;11.02;;;4.40;;
69789;SDS011;57064;52.046;4.800;2023-01-01T16:10:20;11.55;;;4.70;;
69789;SDS011;57064;52.046;4.800;2023-01-01T16:12:46;21.23;;;7.82;;
69789;SDS011;57064;52.046;4.800;2023-01-01T16:15:15;36.78;;;11.95;;
69789;SDS011;57064;52.046;4.800;2023-01-01T16:17:41;13.70;;;4.55;;
69789;SDS011;57064;52.046;4.800;2023-01-01T16:20:15;7.25;;;3.30;;
69789;SDS011;57064;52.046;4.800;2023-01-01T16:22:43;11.80;;;3.92;;
69789;SDS011;57064;52.046;4.800;2023-01-01T16:25:20;8.95;;;3.60;;
69789;SDS011;57064;52.046;4.800;2023-01-01T16:27:46;17.88;;;5.38;;
69789;SDS011;57064;52.046;4.800;2023-01-01T16:30:13;18.15;;;7.07;;
69789;SDS011;57064;52.046;4.800;2023-01-01T16:32:40;16.45;;;6.75;;
69789;SDS011;57064;52.046;4.800;2023-01-01T16:35:10;13.18;;;5.95;;
69789;SDS011;57064;52.046;4.800;2023-01-01T16:37:37;17.77;;;7.53;;
69789;SDS011;57064;52.046;4.800;2023-01-01T16:42:31;17.60;;;4.68;;
69789;SDS011;57064;52.046;4.800;2023-01-01T16:44:57;9.73;;;3.88;;
69789;SDS011;57064;52.046;4.800;2023-01-01T16:47:23;9.48;;;4.65;;
69789;SDS011;57064;52.046;4.800;2023-01-01T16:49:49;16.20;;;4.50;;
69789;SDS011;57064;52.046;4.800;2023-01-01T16:52:15;15.13;;;4.53;;
69789;SDS011;57064;52.046;4.800;2023-01-01T16:54:41;15.02;;;4.90;;
69789;SDS011;57064;52.046;4.800;2023-01-01T16:57:07;14.30;;;4.15;;
69789;SDS011;57064;52.046;4.800;2023-01-01T16:59:33;11.95;;;5.30;;
69789;SDS011;57064;52.046;4.800;2023-01-01T17:01:59;10.68;;;3.75;;
69789;SDS011;57064;52.046;4.800;2023-01-01T17:04:25;13.68;;;3.72;;
69789;SDS011;57064;52.046;4.800;2023-01-01T17:06:52;10.85;;;3.13;;
69789;SDS011;57064;52.046;4.800;2023-01-01T17:09:18;14.63;;;3.42;;
69789;SDS011;57064;52.046;4.800;2023-01-01T17:11:44;10.10;;;3.72;;
69789;SDS011;57064;52.046;4.800;2023-01-01T17:14:10;12.82;;;3.72;;
69789;SDS011;57064;52.046;4.800;2023-01-01T17:16:37;15.93;;;4.00;;